Terminal Aerodrome Forecast
Issued by NWS

Current Version | Previous Version | Text Only | Print | Product List | Glossary On
Versions: 1 2 3 4 5 6 7 8 9 10 11 12 13 14 15 16 17 18 19 20 21 22 23 24 25 26 27 28 29 30 31 32 33 34 35 36 37 38 39 40 41 42 43 44 45 46 47 48 49 50
176
FTUS41 KOKX 131740
TAFHPN
TAF
KHPN 131740Z 1318/1418 22005KT P6SM FEW035 BKN070
     FM132000 18006KT P6SM BKN050
     FM140400 18005KT P6SM VCSH BKN040
     FM140900 17005KT 5SM -SHRA BR VCTS BKN015CB
     FM141200 16006KT 5SM -SHRA BR VCTS OVC008CB
     FM141400 16007KT 5SM -SHRA BR BKN008
     AMD NOT SKED=

USA.gov is the U.S. government's official web portal to all federal, state and local government web resources and services.